AirNav   Everest Fuels
 
 1226 users online  

51GA Smith Field Airport
Tyrone, Georgia, USA

GOING TO TYRONE?


FAA INFORMATION EFFECTIVE 10 SEPTEMBER 2020

Location

FAA Identifier: 51GA
Lat/Long: 33-30-29.0000N 084-36-01.7500W
33-30.483333N 084-36.029167W
33.5080556,-84.6004861
(estimated)
Elevation: 920 ft. / 280 m (estimated)
Variation: 01W (1985)
From city: 2 miles N of TYRONE, GA
Time zone: UTC -4 (UTC -5 during Standard Time)
Zip code: 30290

Airport Operations

Airport use: Private use. Permission required prior to landing
Activation date: 11/1986
Control tower: no
ARTCC: ATLANTA CENTER
FSS: MACON FLIGHT SERVICE STATION
Attendance: UNATNDD
Segmented circle: no

Airport Communications

WX ASOS at FFC (9 nm S): 118.525 (770-487-1610)
WX ASOS at ATL (12 nm NE): PHONE 404-559-5166
WX AWOS-3PT at CCO (15 nm SW): 118.975 (770-254-1617)
WX AWOS-3 at HMP (15 nm SE): 124.825 (770-707-1719)
WX ASOS at FTY (17 nm N): PHONE 404-696-5660

Nearby radio navigation aids

VOR radial/distance  VOR name  Freq  Var
ATLr234/11.0ATLANTA VORTAC116.9005W
PDKr219/26.7PEACHTREE VOR/DME116.6005W

 
NDB name  Hdg/Dist  Freq  Var  ID
PECAT340/13.731605WFFC ..-. ..-. -.-.
COWETA COUNTY024/16.123403WEQQ . --.- --.-
CARROLLTON101/26.827804WGPQ --. .--. --.-

Airport Services

Runway Information

Runway 1/19

Dimensions: 1800 x 100 ft. / 549 x 30 m
Surface: turf
RUNWAY 1  RUNWAY 19
Traffic pattern: leftleft

Airport Ownership and Management from official FAA records

Ownership: Privately-owned
Owner: B. STAN SMITH
375 MANN ROAD
TYRONE, GA 30290
Phone 404-969-7042

Airport Operational Statistics

Aircraft based on the field: 1
Single engine airplanes: 1
    

Additional Remarks

FOR CD CTC ATLANTA APCH AT 678-364-6131.

Instrument Procedures

There are no published instrument procedures at 51GA.

Some nearby airports with instrument procedures:

KFFC - Atlanta Regional Airport-Falcon Field (9 nm S)
KATL - Hartsfield - Jackson Atlanta International Airport (12 nm NE)
KCCO - Newnan Coweta County Airport (15 nm SW)
KHMP - Henry County Airport (15 nm SE)
KFTY - Fulton County Airport-Brown Field (17 nm N)
 
Loc | Ops | Rwys | IFR | FBO | Links
Com | Nav | Svcs | Stats | Notes
Area around 51GA (Smith Field Airport)
 
Road maps at: MapQuest Bing Google
 
Aerial photo
No photo
 
Sectional chart

 
Airport distance calculator
Flying to Smith Field Airport? Find the distance to fly.

From to 51GA

Sunrise and sunset
Times for 25-Sep-2020
 Local
(UTC-4)
 Zulu
(UTC)
Morning civil twilight07:0511:05
Sunrise07:3011:30
Sunset19:2923:29
Evening civil twilight19:5423:54

Current date and time
Zulu (UTC)  25-Sep-2020 22:25:49
Local (UTC-4)  25-Sep-2020 18:25:49
 
METAR
KFFC 
10nm S 
252153Z AUTO 28004KT 10SM OVC037 24/19 A2998 RMK AO2 SLP146 T02390194 $
KATL 
11nm NE 
252152Z 24007KT 10SM FEW020 SCT032 BKN045 24/18 A2998 RMK AO2 SLP142 T02390183
KCCO 
14nm SW 
252155Z AUTO 00000KT 10SM OVC033 25/21 A2999 RMK AO2 T02450210
KHMP 
15nm SE 
252155Z AUTO 25004KT 10SM OVC036 24/20 A3001 RMK AO2 T02350197
KFTY 
17nm N 
252153Z 22007KT 10SM FEW024 FEW029 OVC049 24/18 A2997 RMK AO2 SLP139 T02390183
TAF
KATL 
11nm NE 
251946Z 2520/2624 23008KT P6SM BKN025 FM260100 28005KT P6SM SCT030 FM260700 31004KT 3SM BR FEW004 BKN007 OVC012 FM261000 32004KT 2SM BR BKN003 OVC006 FM261500 31005KT P6SM SCT012 BKN025 FM261900 26004KT P6SM SCT035 SCT120
KFTY 
17nm N 
251738Z 2518/2618 22007KT P6SM SCT020 BKN030 FM251900 25006KT P6SM BKN025 FM260100 VRB03KT P6SM SCT035 FM260800 00000KT 2SM BR SCT007 BKN015 FM261000 00000KT 3SM BR BKN003 OVC006 FM261600 30004KT P6SM BKN015
NOTAMs
Click for the latest NOTAMs
NOTAMs are issued by the DoD/FAA and will open in a separate window not controlled by AirNav.

 

 
 

Would you like to see your business listed on this page?

 If your business provides an interesting product or service to pilots, flight crews, aircraft, or users of the Smith Field Airport, you should consider listing it here.  To start the listing process, click on the button below
 
Add a business
 

Other Pages about Smith Field Airport

Update a link
 
Copyright © AirNav, LLC. All rights reserved. Privacy Policy  Contact